< < Back
Terminal Aerodrome Forecast


Current Version              Previous Versions:   1  2  3  4  5  6  7  8  9  

Terminal Aerodrome Forecast

048
FTUS42 KTAE 221120
TAFDHN
TAF
KDHN 221120Z 2212/2312 36006KT P6SM SCT150
     FM230100 05004KT P6SM SKC=

Latest METAR

393
SAUS70 KWBC 230700 RRH
MTRDHN
METAR KDHN 230653Z AUTO 03005KT 10SM CLR 16/13 A3023 RMK AO2 SLP232
T01610133


USA.gov is the U.S. government's official web portal to all federal, state and local government web resources and services.